Detall de PIREP

Printer-friendly versionPDF version

[2013/02/13 11:51:00]
Flight IATA:CT0001
Pilot Number:042
Company ICAO:CAT
Aircraft Type:B738/F
PAX:114
Departing Airport: LEPA
Destination Airport: LEBL
Alternate Airport:LEPA
Online: VATSIM
Route:ESPOR W2 NEPAL
Flight Level:F180
No Slew and time accel
No pause
Crash detect
Detect pilot in Cockpit between each 30 and 45 minutes
11:51 Zero fuel Weight: 115601 Lbs, Fuel Weight: 46029 Lbs
11:51 VATSIM:LEPA 131130Z 07010KT 9999 FEW030 13/07 Q1017 NOSIG
11:51 VATSIM:LEBL 131130Z 20006KT 170V230 CAVOK 12/03 Q1016 NOSIG
11:51 VOICE CATALONIAN
12:00 Parking Brakes off
12:13 Take-off
12:13 Take off Weight: 160468 Lbs
12:13 Wind: 232º @ 008 Knots Heading: 058º
12:13 POS N39º 33´ 07´´ E002º 45´ 16´´
12:13 Gear Up: 160 Knots
12:13 Flaps:5 at 160 Knots
12:13 Flaps:4 at 150 Knots
12:14 Flaps:3 at 155 Knots
12:15 Flaps:2 at 167 Knots
12:15 Flaps:1 at 185 Knots
12:16 Flaps:0 at 198 Knots
12:24 TOC
12:24 Fuel Weight: 42474 Lb
12:28 Wind:309º@040 Knots Heading: 335º Ground Speed: 359 Knots Altitude 18103 ft
12:31 TOD
12:31 Fuel Weight: 41647 Lb
12:43 Wind:323º@035 Knots Heading: 019º Ground Speed: 236 Knots Altitude 4885 ft
12:43 Flaps:1 at 207 Knots
12:44 Flaps:2 at 190 Knots
12:45 Flaps:3 at 177 Knots
12:46 Gear Down: 174 Knots
12:46 Flaps:4 at 174 Knots
12:46 Flaps:5 at 172 Knots
12:46 Flaps:6 at 168 Knots
12:46 Flaps:7 at 159 Knots
12:46 Flaps:8 at 151 Knots
12:49 TouchDown:Rate -111 ft/min Speed: 130 Knots
12:49 VATSIM:LEBL 131230Z 21009KT 9999 FEW030 13/03 Q1016 NOSIG
12:49 Land
12:49 Wind:212º@004 Knots
12:49 Heading: 243º
12:49 Flight Duration: 00:36
12:49 Landing Weight: 156205 Lbs
12:49 POS N41º 18´ 03´´ E002º 05´ 23´´
12:52 Parking brakes on
12:52 Block to Block Duration: 00:52
12:52 Final Fuel: 40449 Lbls
12:52 Spent Fuel: 5579 Lbls
12:52 Flight Length: 81 NM
12:52 TOD Land Length: 72 NM

Exportar CSV

Powered by Drupal - Modified by Danger4k